Time;durP1;ratioP1;P1;durP2;ratioP2;P2;SDS_P1;SDS_P2;PMS_P1;PMS_P2;Temp;Humidity;BMP_temperature;BMP_pressure;BME280_temperature;BME280_humidity;BME280_pressure;Samples;Min_cycle;Max_cycle;Signal;HPM_P1;HPM_P2
2022/10/28 00:00:26;;;;;;;5.07;2.20;;;;;;;;;;4903762;28;20054;-70
2022/10/28 00:02:51;;;;;;;5.15;2.42;;;;;;;;;;4904408;29;20048;-70
2022/10/28 00:05:17;;;;;;;9.55;2.72;;;;;;;;;;4905103;28;20055;-68
2022/10/28 00:07:42;;;;;;;7.88;2.75;;;;;;;;;;4904832;29;20791;-68
2022/10/28 00:10:08;;;;;;;5.97;2.45;;;;;;;;;;4903697;28;20449;-71
2022/10/28 00:12:35;;;;;;;4.38;2.58;;;;;;;;;;4904354;29;20052;-72
2022/10/28 00:15:00;;;;;;;5.85;2.42;;;;;;;;;;4904584;29;20071;-72
2022/10/28 00:17:26;;;;;;;8.38;2.83;;;;;;;;;;4904765;28;20052;-68
2022/10/28 00:19:51;;;;;;;9.32;2.67;;;;;;;;;;4904596;29;20319;-68
2022/10/28 00:22:17;;;;;;;4.38;2.90;;;;;;;;;;4903239;28;20513;-68
2022/10/28 00:24:42;;;;;;;4.90;2.70;;;;;;;;;;4904373;29;20064;-67
2022/10/28 00:27:07;;;;;;;14.02;3.00;;;;;;;;;;4904950;29;20040;-67
2022/10/28 00:29:33;;;;;;;5.97;3.10;;;;;;;;;;4904533;28;20040;-68
2022/10/28 00:31:58;;;;;;;11.75;2.72;;;;;;;;;;4904246;29;20040;-68
2022/10/28 00:34:24;;;;;;;5.55;3.20;;;;;;;;;;4903315;28;20052;-67
2022/10/28 00:36:49;;;;;;;7.90;3.47;;;;;;;;;;4905404;29;20051;-67
2022/10/28 00:39:23;;;;;;;10.38;3.67;;;;;;;;;;4904000;29;20075;-67
2022/10/28 00:41:57;;;;;;;13.45;8.50;;;;;;;;;;4903684;28;20551;-67
2022/10/28 00:44:56;;;;;;;13.90;5.68;;;;;;;;;;4903163;29;20468;-68
2022/10/28 00:47:27;;;;;;;6.65;2.88;;;;;;;;;;4903886;28;20067;-68
2022/10/28 00:49:57;;;;;;;6.53;2.90;;;;;;;;;;4904541;29;20493;-67
2022/10/28 00:52:26;;;;;;;6.97;3.03;;;;;;;;;;4902091;28;20044;-67
2022/10/28 00:54:53;;;;;;;4.88;3.03;;;;;;;;;;4904744;29;20111;-67
2022/10/28 00:57:23;;;;;;;5.82;3.20;;;;;;;;;;4908139;29;20051;-67
2022/10/28 00:59:52;;;;;;;5.03;2.80;;;;;;;;;;4922909;28;20048;-68
2022/10/28 01:02:18;;;;;;;6.82;2.58;;;;;;;;;;4920053;29;20052;-68
2022/10/28 01:04:45;;;;;;;6.20;2.90;;;;;;;;;;4906614;28;20076;-68
2022/10/28 01:07:11;;;;;;;6.35;2.67;;;;;;;;;;4905981;29;20074;-69
2022/10/28 01:09:39;;;;;;;7.30;3.17;;;;;;;;;;4907308;29;20044;-68
2022/10/28 01:12:22;;;;;;;5.57;2.40;;;;;;;;;;4906494;28;20192;-68
2022/10/28 01:15:32;;;;;;;4.05;2.50;;;;;;;;;;4918700;29;20052;-67
2022/10/28 01:18:27;;;;;;;5.57;3.08;;;;;;;;;;4902771;29;20080;-69
2022/10/28 01:21:11;;;;;;;4.28;2.58;;;;;;;;;;4919028;29;20044;-67
2022/10/28 01:24:12;;;;;;;8.32;2.75;;;;;;;;;;4905818;29;20809;-68
2022/10/28 01:26:52;;;;;;;4.70;2.80;;;;;;;;;;4919853;29;20080;-69
2022/10/28 01:29:48;;;;;;;6.68;2.42;;;;;;;;;;4907571;28;20052;-69
2022/10/28 01:32:34;;;;;;;5.55;3.30;;;;;;;;;;4906805;29;20408;-70
2022/10/28 01:35:23;;;;;;;7.10;2.92;;;;;;;;;;4907530;28;20056;-69
2022/10/28 01:38:12;;;;;;;5.90;2.88;;;;;;;;;;4907440;29;20043;-69
2022/10/28 01:40:48;;;;;;;4.00;2.85;;;;;;;;;;4920402;29;20464;-68
2022/10/28 01:43:29;;;;;;;5.45;2.70;;;;;;;;;;4906941;29;20382;-68
2022/10/28 01:46:09;;;;;;;7.60;2.75;;;;;;;;;;4907462;28;20054;-69
2022/10/28 01:48:42;;;;;;;5.82;2.55;;;;;;;;;;4906963;29;20043;-69
2022/10/28 01:51:15;;;;;;;4.03;2.60;;;;;;;;;;4906685;28;20059;-68
2022/10/28 01:53:44;;;;;;;6.78;3.00;;;;;;;;;;4906664;29;20048;-68
2022/10/28 01:56:15;;;;;;;11.57;2.60;;;;;;;;;;4906168;28;20397;-68
2022/10/28 01:58:42;;;;;;;5.80;2.45;;;;;;;;;;4906399;29;20052;-70
2022/10/28 02:01:09;;;;;;;8.18;2.53;;;;;;;;;;4921194;29;20102;-69
2022/10/28 02:03:34;;;;;;;4.03;2.20;;;;;;;;;;4906980;28;20055;-69
2022/10/28 02:06:03;;;;;;;6.20;2.50;;;;;;;;;;4906368;29;20044;-68
2022/10/28 02:08:35;;;;;;;3.42;2.67;;;;;;;;;;4905990;28;20067;-68
2022/10/28 02:11:05;;;;;;;3.47;2.13;;;;;;;;;;4906829;29;20066;-68
2022/10/28 02:13:42;;;;;;;2.47;2.00;;;;;;;;;;4906629;29;20052;-68
2022/10/28 02:16:17;;;;;;;3.75;2.25;;;;;;;;;;4904649;29;20108;-70
2022/10/28 02:19:00;;;;;;;5.03;2.53;;;;;;;;;;4906977;29;20040;-69
2022/10/28 02:21:44;;;;;;;2.28;2.00;;;;;;;;;;4905994;28;20068;-68
2022/10/28 02:24:17;;;;;;;3.92;2.35;;;;;;;;;;4906051;29;20056;-69
2022/10/28 02:26:50;;;;;;;5.85;2.47;;;;;;;;;;4906665;28;20137;-70
2022/10/28 02:29:34;;;;;;;8.90;3.45;;;;;;;;;;4906461;29;20195;-69
2022/10/28 02:32:08;;;;;;;3.45;2.03;;;;;;;;;;4905159;29;20671;-70
2022/10/28 02:34:39;;;;;;;5.45;2.20;;;;;;;;;;4905800;29;20056;-68
2022/10/28 02:37:11;;;;;;;4.68;2.63;;;;;;;;;;4906229;29;20095;-70
2022/10/28 02:39:45;;;;;;;3.50;2.00;;;;;;;;;;4920667;28;20047;-68
2022/10/28 02:42:27;;;;;;;12.38;2.50;;;;;;;;;;4903440;29;20062;-70
2022/10/28 02:45:02;;;;;;;3.95;2.30;;;;;;;;;;4906131;28;20039;-68
2022/10/28 02:47:34;;;;;;;8.05;2.55;;;;;;;;;;4906259;29;20051;-69
2022/10/28 02:50:05;;;;;;;4.72;2.20;;;;;;;;;;4905073;29;20489;-69
2022/10/28 02:52:32;;;;;;;7.22;2.00;;;;;;;;;;4904618;29;20174;-70
2022/10/28 02:55:04;;;;;;;4.68;2.38;;;;;;;;;;4906072;29;20135;-68
2022/10/28 02:57:42;;;;;;;2.88;2.08;;;;;;;;;;4905925;28;20497;-69
2022/10/28 03:00:13;;;;;;;6.90;1.83;;;;;;;;;;4905243;29;20261;-69
2022/10/28 03:02:38;;;;;;;5.17;2.50;;;;;;;;;;4905571;28;20073;-68
2022/10/28 03:05:05;;;;;;;3.47;2.20;;;;;;;;;;4903784;29;20497;-68
2022/10/28 03:07:30;;;;;;;3.15;1.95;;;;;;;;;;4905885;29;20151;-68
2022/10/28 03:09:56;;;;;;;4.72;2.33;;;;;;;;;;4906152;28;20154;-69
2022/10/28 03:12:21;;;;;;;8.57;2.38;;;;;;;;;;4904642;29;20044;-69
2022/10/28 03:14:47;;;;;;;4.57;2.28;;;;;;;;;;4904910;28;20058;-68
2022/10/28 03:17:12;;;;;;;2.70;2.10;;;;;;;;;;4902405;29;20051;-68
2022/10/28 03:19:38;;;;;;;6.93;2.30;;;;;;;;;;4904609;29;20564;-69
2022/10/28 03:22:03;;;;;;;4.93;2.22;;;;;;;;;;4905087;28;20048;-68
2022/10/28 03:24:28;;;;;;;4.07;2.00;;;;;;;;;;4905177;29;20099;-68
2022/10/28 03:26:54;;;;;;;4.63;2.08;;;;;;;;;;4904580;28;20084;-70
2022/10/28 03:29:20;;;;;;;5.57;2.22;;;;;;;;;;4902893;29;20499;-68
2022/10/28 03:31:45;;;;;;;3.20;2.20;;;;;;;;;;4904436;29;20044;-67
2022/10/28 03:34:11;;;;;;;3.90;2.08;;;;;;;;;;4904432;28;20502;-69
2022/10/28 03:36:36;;;;;;;4.05;1.88;;;;;;;;;;4904182;29;20055;-68
2022/10/28 03:39:02;;;;;;;8.25;2.30;;;;;;;;;;4904944;28;20052;-68
2022/10/28 03:41:28;;;;;;;3.92;2.25;;;;;;;;;;4904858;29;20062;-68
2022/10/28 03:43:53;;;;;;;4.18;1.90;;;;;;;;;;4904789;29;20048;-68
2022/10/28 03:46:19;;;;;;;3.80;1.92;;;;;;;;;;4903874;28;20245;-69
2022/10/28 03:48:44;;;;;;;5.82;2.25;;;;;;;;;;4903868;29;20044;-69
2022/10/28 03:51:10;;;;;;;6.57;1.83;;;;;;;;;;4904668;28;20056;-69
2022/10/28 03:53:35;;;;;;;3.30;2.00;;;;;;;;;;4904272;29;20134;-72
2022/10/28 03:56:01;;;;;;;3.40;1.83;;;;;;;;;;4904599;29;20071;-68
2022/10/28 03:58:27;;;;;;;4.05;1.90;;;;;;;;;;4903478;28;22126;-69
2022/10/28 04:00:53;;;;;;;4.13;1.90;;;;;;;;;;4903988;29;20040;-70
2022/10/28 04:03:21;;;;;;;5.07;2.30;;;;;;;;;;4903774;28;20059;-73
2022/10/28 04:05:49;;;;;;;5.63;1.98;;;;;;;;;;4902907;29;20966;-74
2022/10/28 04:08:15;;;;;;;7.07;1.98;;;;;;;;;;4903756;28;20445;-69
2022/10/28 04:10:42;;;;;;;5.43;1.83;;;;;;;;;;4898472;29;20051;-74
2022/10/28 04:13:08;;;;;;;3.97;1.90;;;;;;;;;;4913047;29;20052;-71
2022/10/28 04:15:34;;;;;;;3.75;2.10;;;;;;;;;;4903312;28;20052;-70
2022/10/28 04:18:00;;;;;;;8.35;2.60;;;;;;;;;;4904389;29;20048;-69
2022/10/28 04:20:27;;;;;;;4.57;1.92;;;;;;;;;;4902648;28;20099;-71
2022/10/28 04:22:53;;;;;;;6.65;1.80;;;;;;;;;;4903799;29;20056;-72
2022/10/28 04:25:20;;;;;;;4.90;2.10;;;;;;;;;;4902528;29;20047;-67
2022/10/28 04:27:46;;;;;;;3.92;2.22;;;;;;;;;;4904333;28;20120;-67
2022/10/28 04:30:13;;;;;;;5.20;1.98;;;;;;;;;;4902655;29;20047;-68
2022/10/28 04:32:39;;;;;;;5.13;1.90;;;;;;;;;;4903212;28;20106;-74
2022/10/28 04:35:05;;;;;;;5.13;2.10;;;;;;;;;;4903016;29;20408;-68
2022/10/28 04:37:33;;;;;;;3.78;1.88;;;;;;;;;;4903521;29;20048;-75
2022/10/28 04:39:58;;;;;;;4.70;2.08;;;;;;;;;;4902674;28;20059;-70
2022/10/28 04:42:24;;;;;;;6.60;1.90;;;;;;;;;;4901301;29;20048;-71
2022/10/28 04:44:49;;;;;;;3.97;1.70;;;;;;;;;;4902697;28;20040;-68
2022/10/28 04:47:16;;;;;;;2.72;1.85;;;;;;;;;;4902386;29;20044;-68
2022/10/28 04:49:42;;;;;;;3.53;1.80;;;;;;;;;;4902362;29;20115;-72
2022/10/28 04:52:08;;;;;;;5.82;2.10;;;;;;;;;;4901756;28;20115;-70
2022/10/28 04:54:33;;;;;;;7.20;2.05;;;;;;;;;;4902157;29;20056;-73
2022/10/28 04:56:58;;;;;;;5.20;2.30;;;;;;;;;;4901582;29;20059;-68
2022/10/28 04:59:24;;;;;;;3.72;2.00;;;;;;;;;;4906216;29;20052;-70
2022/10/28 05:01:49;;;;;;;3.03;1.60;;;;;;;;;;4920727;29;20048;-70
2022/10/28 05:04:15;;;;;;;2.88;1.80;;;;;;;;;;4901235;28;20110;-69
2022/10/28 05:06:40;;;;;;;3.05;1.90;;;;;;;;;;4901259;29;20135;-70
2022/10/28 05:09:06;;;;;;;5.07;2.00;;;;;;;;;;4902272;28;20139;-68
2022/10/28 05:11:31;;;;;;;6.53;1.83;;;;;;;;;;4901306;29;20135;-72
2022/10/28 05:13:57;;;;;;;5.88;2.00;;;;;;;;;;4903135;29;20169;-73
2022/10/28 05:16:22;;;;;;;2.30;1.70;;;;;;;;;;4900647;28;20108;-72
2022/10/28 05:18:48;;;;;;;4.30;2.00;;;;;;;;;;4903707;29;20052;-71
2022/10/28 05:21:13;;;;;;;4.05;1.73;;;;;;;;;;4903340;28;20047;-70
2022/10/28 05:23:39;;;;;;;8.20;1.88;;;;;;;;;;4904090;29;21072;-71
2022/10/28 05:26:04;;;;;;;4.53;2.00;;;;;;;;;;4905241;29;20048;-69
2022/10/28 05:28:30;;;;;;;3.28;1.88;;;;;;;;;;4903491;28;20048;-71
2022/10/28 05:30:55;;;;;;;2.38;2.00;;;;;;;;;;4903684;29;20059;-71
2022/10/28 05:33:21;;;;;;;1.88;1.48;;;;;;;;;;4902821;28;20052;-69
2022/10/28 05:35:46;;;;;;;3.97;1.98;;;;;;;;;;4904052;29;20062;-69
2022/10/28 05:38:12;;;;;;;4.38;1.98;;;;;;;;;;4901556;28;20051;-68
2022/10/28 05:40:37;;;;;;;3.95;1.90;;;;;;;;;;4904237;29;20071;-71
2022/10/28 05:43:03;;;;;;;5.78;1.95;;;;;;;;;;4905024;29;20131;-71
2022/10/28 05:45:29;;;;;;;3.85;1.60;;;;;;;;;;4906127;28;20110;-67
2022/10/28 05:47:54;;;;;;;1.92;1.63;;;;;;;;;;4905552;29;20047;-71
2022/10/28 05:50:20;;;;;;;3.00;1.80;;;;;;;;;;4906804;28;20485;-71
2022/10/28 05:52:47;;;;;;;5.82;2.08;;;;;;;;;;4907107;29;20048;-68
2022/10/28 05:55:13;;;;;;;1.67;1.55;;;;;;;;;;4906888;29;20040;-71
2022/10/28 05:57:39;;;;;;;3.53;1.70;;;;;;;;;;4907385;28;20122;-71
2022/10/28 06:00:06;;;;;;;5.32;2.25;;;;;;;;;;4905137;29;20915;-71
2022/10/28 06:02:37;;;;;;;7.68;1.80;;;;;;;;;;4919828;29;20111;-71
2022/10/28 06:05:03;;;;;;;6.80;1.88;;;;;;;;;;4907239;29;20056;-70
2022/10/28 06:07:29;;;;;;;10.40;2.08;;;;;;;;;;4906076;29;20060;-72
2022/10/28 06:09:55;;;;;;;3.10;1.80;;;;;;;;;;4920686;29;20087;-69
2022/10/28 06:12:20;;;;;;;2.80;2.00;;;;;;;;;;4905016;28;20104;-72
2022/10/28 06:14:45;;;;;;;3.33;1.98;;;;;;;;;;4908867;29;20736;-70
2022/10/28 06:17:11;;;;;;;4.57;2.22;;;;;;;;;;4906713;29;20155;-69
2022/10/28 06:19:36;;;;;;;5.28;2.03;;;;;;;;;;4907786;28;20905;-72
2022/10/28 06:22:02;;;;;;;3.95;2.45;;;;;;;;;;4907609;29;20052;-70
2022/10/28 06:24:28;;;;;;;7.18;1.90;;;;;;;;;;4921713;28;20440;-71
2022/10/28 06:26:53;;;;;;;2.58;1.98;;;;;;;;;;4907475;29;20040;-69
2022/10/28 06:29:19;;;;;;;4.63;1.70;;;;;;;;;;4905434;29;20051;-72
2022/10/28 06:31:44;;;;;;;2.80;2.05;;;;;;;;;;4904259;29;20048;-71
2022/10/28 06:34:11;;;;;;;4.13;1.85;;;;;;;;;;4904265;29;20048;-68
2022/10/28 06:36:37;;;;;;;3.83;1.92;;;;;;;;;;4906444;28;20044;-69
2022/10/28 06:39:03;;;;;;;4.10;2.03;;;;;;;;;;4906349;29;20058;-69
2022/10/28 06:41:28;;;;;;;8.32;2.63;;;;;;;;;;4906240;29;20056;-66
2022/10/28 06:43:54;;;;;;;6.68;2.10;;;;;;;;;;4905495;28;20420;-71
2022/10/28 06:46:19;;;;;;;4.95;2.03;;;;;;;;;;4905553;29;20040;-67
2022/10/28 06:48:45;;;;;;;4.68;1.75;;;;;;;;;;4906555;28;20496;-71
2022/10/28 06:51:10;;;;;;;5.95;1.80;;;;;;;;;;4906141;29;20785;-69
2022/10/28 06:53:35;;;;;;;4.63;2.22;;;;;;;;;;4905097;29;20048;-67
2022/10/28 06:56:01;;;;;;;1.98;1.77;;;;;;;;;;4905958;28;20457;-70
2022/10/28 06:58:27;;;;;;;5.72;2.20;;;;;;;;;;4905730;29;20692;-71
2022/10/28 07:00:52;;;;;;;4.00;2.45;;;;;;;;;;4904356;29;20047;-68
2022/10/28 07:03:19;;;;;;;4.72;2.15;;;;;;;;;;4905745;29;20055;-69
2022/10/28 07:05:45;;;;;;;2.53;1.50;;;;;;;;;;4905463;29;20055;-68
2022/10/28 07:08:11;;;;;;;2.28;1.70;;;;;;;;;;4905425;28;20059;-71
2022/10/28 07:10:37;;;;;;;4.50;1.98;;;;;;;;;;4906134;29;20048;-71
2022/10/28 07:13:03;;;;;;;5.57;1.55;;;;;;;;;;4904622;29;20055;-67
2022/10/28 07:15:28;;;;;;;3.78;1.77;;;;;;;;;;4904843;29;20055;-70
2022/10/28 07:17:55;;;;;;;6.35;1.58;;;;;;;;;;4905849;29;20039;-71
2022/10/28 07:20:21;;;;;;;3.72;1.70;;;;;;;;;;4905082;28;20067;-68
2022/10/28 07:22:47;;;;;;;4.78;2.08;;;;;;;;;;4905372;29;20052;-70
2022/10/28 07:25:12;;;;;;;7.55;2.00;;;;;;;;;;4905574;28;20059;-69
2022/10/28 07:27:38;;;;;;;4.43;1.80;;;;;;;;;;4905000;29;20051;-71
2022/10/28 07:30:04;;;;;;;3.58;1.70;;;;;;;;;;4905997;29;20052;-70
2022/10/28 07:32:31;;;;;;;3.63;1.80;;;;;;;;;;4903711;29;20055;-71
2022/10/28 07:34:57;;;;;;;7.28;1.98;;;;;;;;;;4905894;29;20048;-69
2022/10/28 07:37:22;;;;;;;8.85;2.28;;;;;;;;;;4905086;28;20051;-70
2022/10/28 07:39:47;;;;;;;7.38;1.80;;;;;;;;;;4906350;29;20044;-68
2022/10/28 07:42:13;;;;;;;4.45;1.50;;;;;;;;;;4903940;28;20063;-70
2022/10/28 07:44:38;;;;;;;2.53;1.60;;;;;;;;;;4906373;29;20063;-70
2022/10/28 07:47:04;;;;;;;2.70;1.52;;;;;;;;;;4906037;29;20052;-71
2022/10/28 07:49:29;;;;;;;3.15;1.90;;;;;;;;;;4905112;29;20055;-70
2022/10/28 07:51:55;;;;;;;6.90;1.90;;;;;;;;;;4906438;29;20683;-69
2022/10/28 07:54:20;;;;;;;5.88;1.38;;;;;;;;;;4904881;28;20044;-70
2022/10/28 07:56:46;;;;;;;2.97;1.73;;;;;;;;;;4905367;29;20040;-70
2022/10/28 07:59:11;;;;;;;11.30;1.90;;;;;;;;;;4904851;29;20433;-69
2022/10/28 08:01:37;;;;;;;9.38;1.63;;;;;;;;;;4905002;28;20044;-68
2022/10/28 08:04:02;;;;;;;3.38;1.60;;;;;;;;;;4904804;29;20088;-71
2022/10/28 08:06:28;;;;;;;3.45;1.63;;;;;;;;;;4903603;28;20238;-68
2022/10/28 08:08:55;;;;;;;4.55;1.80;;;;;;;;;;4906317;29;20059;-71
2022/10/28 08:11:24;;;;;;;5.85;1.50;;;;;;;;;;4905510;29;20129;-70
2022/10/28 08:13:54;;;;;;;5.97;2.00;;;;;;;;;;4907438;28;20054;-68
2022/10/28 08:16:19;;;;;;;6.43;1.80;;;;;;;;;;4906695;29;20051;-68
2022/10/28 08:18:45;;;;;;;5.88;1.92;;;;;;;;;;4907069;28;20086;-70
2022/10/28 08:21:11;;;;;;;8.38;2.33;;;;;;;;;;4904988;29;20047;-70
2022/10/28 08:23:37;;;;;;;5.45;1.60;;;;;;;;;;4905230;29;20135;-70
2022/10/28 08:26:03;;;;;;;4.70;1.23;;;;;;;;;;4904799;28;20139;-68
2022/10/28 08:28:29;;;;;;;1.40;1.30;;;;;;;;;;4904839;29;20063;-68
2022/10/28 08:31:00;;;;;;;5.43;1.73;;;;;;;;;;4904549;28;20071;-67
2022/10/28 08:33:25;;;;;;;4.63;1.65;;;;;;;;;;4904677;29;20067;-71
2022/10/28 08:35:51;;;;;;;3.92;1.52;;;;;;;;;;4903409;29;20188;-69
2022/10/28 08:38:16;;;;;;;2.75;1.80;;;;;;;;;;4904735;28;20044;-70
2022/10/28 08:41:05;;;;;;;3.50;1.85;;;;;;;;;;4905305;29;20097;-68
2022/10/28 08:44:06;;;;;;;3.47;1.40;;;;;;;;;;4903865;28;20080;-69
2022/10/28 08:46:46;;;;;;;2.63;1.40;;;;;;;;;;4905442;29;20044;-71
2022/10/28 08:49:16;;;;;;;3.22;1.30;;;;;;;;;;4906560;28;20075;-70
2022/10/28 08:52:01;;;;;;;3.35;1.48;;;;;;;;;;4920541;29;20054;-69
2022/10/28 08:54:34;;;;;;;7.25;1.50;;;;;;;;;;4903422;29;22237;-66
2022/10/28 08:57:04;;;;;;;1.60;1.33;;;;;;;;;;4904235;29;20044;-66
2022/10/28 08:59:39;;;;;;;6.43;1.40;;;;;;;;;;4904129;29;20052;-68
2022/10/28 09:02:10;;;;;;;4.85;1.50;;;;;;;;;;4903977;28;20143;-70
2022/10/28 09:04:44;;;;;;;3.97;1.50;;;;;;;;;;4903597;29;20067;-72
2022/10/28 09:07:22;;;;;;;5.60;1.63;;;;;;;;;;4902172;29;20076;-72
2022/10/28 09:09:50;;;;;;;5.68;1.50;;;;;;;;;;4904096;29;20047;-70
2022/10/28 09:12:32;;;;;;;5.30;1.95;;;;;;;;;;4903403;28;20043;-72
2022/10/28 09:15:19;;;;;;;2.88;1.55;;;;;;;;;;4904055;29;20070;-73
2022/10/28 09:17:54;;;;;;;2.95;1.20;;;;;;;;;;4905931;29;20046;-73
2022/10/28 09:20:44;;;;;;;2.97;1.50;;;;;;;;;;4907135;28;20142;-72
2022/10/28 09:23:22;;;;;;;6.15;1.40;;;;;;;;;;4907644;29;20063;-72
2022/10/28 09:26:12;;;;;;;4.47;1.40;;;;;;;;;;4907574;28;20079;-70
2022/10/28 09:28:56;;;;;;;3.85;1.27;;;;;;;;;;4921385;29;20194;-71
2022/10/28 09:31:34;;;;;;;7.60;1.38;;;;;;;;;;4905884;29;20043;-73
2022/10/28 09:34:05;;;;;;;3.72;1.50;;;;;;;;;;4907370;29;20144;-72
2022/10/28 09:36:35;;;;;;;6.35;1.20;;;;;;;;;;4905452;29;20063;-69
2022/10/28 09:39:02;;;;;;;3.13;1.40;;;;;;;;;;4906677;29;20043;-73
2022/10/28 09:41:38;;;;;;;4.88;1.20;;;;;;;;;;4908140;28;20277;-69
2022/10/28 09:44:18;;;;;;;6.93;1.50;;;;;;;;;;4906604;29;20062;-71
2022/10/28 09:46:47;;;;;;;1.77;1.00;;;;;;;;;;4921264;29;20445;-68
2022/10/28 09:49:28;;;;;;;6.68;1.30;;;;;;;;;;4907140;29;20280;-70
2022/10/28 09:52:06;;;;;;;5.60;1.70;;;;;;;;;;4907474;28;20052;-70
2022/10/28 09:54:38;;;;;;;2.15;1.83;;;;;;;;;;4906537;29;20136;-68
2022/10/28 09:57:04;;;;;;;5.60;1.50;;;;;;;;;;4907237;28;20071;-67
2022/10/28 09:59:30;;;;;;;7.68;1.30;;;;;;;;;;4906888;29;20590;-69
2022/10/28 10:01:55;;;;;;;5.30;1.25;;;;;;;;;;4906139;29;20048;-69
2022/10/28 10:04:26;;;;;;;4.15;1.40;;;;;;;;;;4906113;28;20047;-69
2022/10/28 10:07:08;;;;;;;4.82;1.23;;;;;;;;;;4907289;29;20052;-70
2022/10/28 10:09:36;;;;;;;4.88;1.40;;;;;;;;;;4906900;28;20048;-69
2022/10/28 10:12:06;;;;;;;2.92;1.30;;;;;;;;;;4908696;29;20047;-72
2022/10/28 10:14:39;;;;;;;2.80;1.27;;;;;;;;;;4907392;28;20060;-71
2022/10/28 10:17:13;;;;;;;6.13;1.40;;;;;;;;;;4907889;29;20059;-72
2022/10/28 10:20:05;;;;;;;4.30;1.17;;;;;;;;;;4908564;29;20051;-72
2022/10/28 10:22:34;;;;;;;;;;;;;;;;;;4906696;29;20440;-72
2022/10/28 10:25:00;;;;;;;5.28;1.65;;;;;;;;;;4906177;29;19927;-73
2022/10/28 10:27:29;;;;;;;3.30;1.13;;;;;;;;;;4905785;29;20059;-73
2022/10/28 10:29:56;;;;;;;3.75;1.05;;;;;;;;;;4907576;29;20159;-69
2022/10/28 10:32:27;;;;;;;4.93;1.60;;;;;;;;;;4904666;28;20095;-70
2022/10/28 10:35:19;;;;;;;4.43;2.20;;;;;;;;;;4905971;29;20040;-70
2022/10/28 10:37:46;;;;;;;4.95;1.30;;;;;;;;;;4920826;29;20040;-71
2022/10/28 10:40:14;;;;;;;1.50;0.93;;;;;;;;;;4906532;28;20155;-69
2022/10/28 10:42:40;;;;;;;3.80;1.13;;;;;;;;;;4906331;29;20056;-73
2022/10/28 10:45:25;;;;;;;6.25;1.50;;;;;;;;;;4920207;28;20066;-72
2022/10/28 10:48:11;;;;;;;2.42;1.20;;;;;;;;;;4906044;29;20083;-73
2022/10/28 10:50:37;;;;;;;3.38;1.40;;;;;;;;;;4904116;28;20052;-72
2022/10/28 10:53:03;;;;;;;3.38;1.10;;;;;;;;;;4904238;29;20048;-72
2022/10/28 10:55:34;;;;;;;8.90;1.40;;;;;;;;;;4901966;29;20048;-72
2022/10/28 10:58:00;;;;;;;3.08;1.00;;;;;;;;;;4919920;29;20072;-72
2022/10/28 11:00:32;;;;;;;4.95;1.35;;;;;;;;;;4918152;28;20049;-69
2022/10/28 11:02:59;;;;;;;4.20;1.13;;;;;;;;;;4905116;29;20047;-71
2022/10/28 11:05:25;;;;;;;4.13;1.17;;;;;;;;;;4905789;29;20048;-71
2022/10/28 11:07:51;;;;;;;4.63;1.10;;;;;;;;;;4905312;29;20080;-71
2022/10/28 11:10:22;;;;;;;2.50;1.23;;;;;;;;;;4904984;28;20040;-71
2022/10/28 11:12:54;;;;;;;3.50;1.20;;;;;;;;;;4905298;29;20075;-70
2022/10/28 11:15:24;;;;;;;3.25;1.17;;;;;;;;;;4915884;28;20056;-71
2022/10/28 11:18:19;;;;;;;5.53;1.40;;;;;;;;;;4903193;29;20441;-71
2022/10/28 11:21:05;;;;;;;3.65;1.10;;;;;;;;;;4913768;29;20421;-71
2022/10/28 11:23:57;;;;;;;2.78;1.20;;;;;;;;;;4903487;29;20048;-71
2022/10/28 11:26:23;;;;;;;6.65;1.45;;;;;;;;;;4902560;28;21001;-71
2022/10/28 11:28:49;;;;;;;6.90;1.50;;;;;;;;;;4902749;29;20036;-71
2022/10/28 11:31:29;;;;;;;4.38;1.27;;;;;;;;;;4902282;28;20063;-71
2022/10/28 11:34:04;;;;;;;6.15;1.10;;;;;;;;;;4903454;29;20059;-71
2022/10/28 11:36:36;;;;;;;1.83;1.23;;;;;;;;;;4902329;28;20066;-71
2022/10/28 11:39:07;;;;;;;3.75;1.23;;;;;;;;;;4902580;29;20135;-71
2022/10/28 11:41:50;;;;;;;5.82;1.38;;;;;;;;;;4903210;29;20052;-71
2022/10/28 11:44:22;;;;;;;3.85;1.20;;;;;;;;;;4902263;28;20048;-71
2022/10/28 11:47:07;;;;;;;4.63;1.35;;;;;;;;;;4900460;29;20040;-72
2022/10/28 11:49:46;;;;;;;5.68;1.90;;;;;;;;;;4917852;29;20067;-71
2022/10/28 11:52:39;;;;;;;5.30;1.20;;;;;;;;;;4901383;29;20078;-71
2022/10/28 11:55:31;;;;;;;4.88;1.20;;;;;;;;;;4902942;29;20135;-71
2022/10/28 11:58:26;;;;;;;2.85;1.00;;;;;;;;;;4915994;28;20143;-71
2022/10/28 12:00:55;;;;;;;3.85;1.10;;;;;;;;;;4899914;29;20126;-71
2022/10/28 12:03:32;;;;;;;5.68;0.93;;;;;;;;;;4902047;29;20429;-71
2022/10/28 12:06:19;;;;;;;7.22;1.45;;;;;;;;;;4902043;29;20058;-71
2022/10/28 12:09:18;;;;;;;3.13;1.20;;;;;;;;;;4915328;29;20126;-71
2022/10/28 12:12:12;;;;;;;2.97;0.80;;;;;;;;;;4903363;28;20056;-70
2022/10/28 12:14:51;;;;;;;2.97;1.30;;;;;;;;;;4901659;29;20047;-70
2022/10/28 12:17:26;;;;;;;4.90;2.33;;;;;;;;;;4902804;28;20437;-70
2022/10/28 12:20:00;;;;;;;2.50;1.30;;;;;;;;;;4902577;29;20147;-70
2022/10/28 12:22:34;;;;;;;4.05;1.00;;;;;;;;;;4902493;28;20048;-70
2022/10/28 12:25:06;;;;;;;4.18;1.35;;;;;;;;;;4914709;29;20138;-71
2022/10/28 12:27:36;;;;;;;6.85;1.30;;;;;;;;;;4917396;29;20074;-70
2022/10/28 12:30:23;;;;;;;5.25;1.10;;;;;;;;;;4901802;28;20131;-71
2022/10/28 12:32:54;;;;;;;8.18;1.55;;;;;;;;;;4914387;29;20157;-69
2022/10/28 12:35:24;;;;;;;5.72;1.20;;;;;;;;;;4900731;28;20099;-69
2022/10/28 12:38:09;;;;;;;7.70;1.25;;;;;;;;;;4901662;29;20461;-69
2022/10/28 12:40:45;;;;;;;5.28;1.20;;;;;;;;;;4901869;28;20052;-69
2022/10/28 12:43:49;;;;;;;10.65;1.55;;;;;;;;;;4902054;29;20140;-70
2022/10/28 12:46:24;;;;;;;2.75;1.10;;;;;;;;;;4918275;28;20417;-70
2022/10/28 12:48:57;;;;;;;2.15;1.00;;;;;;;;;;4907422;29;20306;-70
2022/10/28 12:51:27;;;;;;;7.00;1.27;;;;;;;;;;4904473;29;20103;-69
2022/10/28 12:54:13;;;;;;;2.53;1.20;;;;;;;;;;4905925;28;20040;-70
2022/10/28 12:57:00;;;;;;;1.65;1.00;;;;;;;;;;4905055;29;20052;-70
2022/10/28 12:59:42;;;;;;;6.18;1.20;;;;;;;;;;4906060;28;20059;-70
2022/10/28 13:02:52;;;;;;;4.80;1.50;;;;;;;;;;4905599;29;20416;-69
2022/10/28 13:05:23;;;;;;;5.43;1.10;;;;;;;;;;4904525;29;20060;-69
2022/10/28 13:08:34;;;;;;;5.50;1.73;;;;;;;;;;4904158;29;20090;-70
2022/10/28 13:11:37;;;;;;;3.63;1.20;;;;;;;;;;4903489;29;20158;-70
2022/10/28 13:14:25;;;;;;;4.00;1.00;;;;;;;;;;4912681;29;20052;-70
2022/10/28 13:17:18;;;;;;;4.28;1.20;;;;;;;;;;4917744;29;20052;-70
2022/10/28 13:19:50;;;;;;;5.78;1.20;;;;;;;;;;4905798;29;20058;-70
2022/10/28 13:22:26;;;;;;;2.22;1.00;;;;;;;;;;4906499;28;20062;-71
2022/10/28 13:25:06;;;;;;;5.38;1.35;;;;;;;;;;4907642;29;20551;-70
2022/10/28 13:27:32;;;;;;;12.73;2.13;;;;;;;;;;4907431;28;20058;-70
2022/10/28 13:29:59;;;;;;;4.05;1.65;;;;;;;;;;4920735;29;20052;-70
2022/10/28 13:32:31;;;;;;;4.95;1.33;;;;;;;;;;4903246;29;20797;-71
2022/10/28 13:34:58;;;;;;;4.93;1.40;;;;;;;;;;4904350;29;20054;-69
2022/10/28 13:37:35;;;;;;;4.68;1.20;;;;;;;;;;4905707;29;20519;-70
2022/10/28 13:40:00;;;;;;;6.88;1.20;;;;;;;;;;4906051;29;20640;-70
2022/10/28 13:42:31;;;;;;;2.60;1.17;;;;;;;;;;4904481;28;20048;-69
2022/10/28 13:45:01;;;;;;;1.67;0.98;;;;;;;;;;4905911;29;20593;-69
2022/10/28 13:47:34;;;;;;;3.15;1.10;;;;;;;;;;4905704;29;20493;-69
2022/10/28 13:50:08;;;;;;;7.28;1.10;;;;;;;;;;4905313;28;20050;-70
2022/10/28 13:52:36;;;;;;;7.75;1.40;;;;;;;;;;4918598;29;20103;-69
2022/10/28 13:55:36;;;;;;;5.15;1.90;;;;;;;;;;4906166;28;20044;-69
2022/10/28 13:58:03;;;;;;;4.38;1.50;;;;;;;;;;4908039;29;20839;-69
2022/10/28 14:00:29;;;;;;;5.18;1.40;;;;;;;;;;4903158;29;20529;-69
2022/10/28 14:03:00;;;;;;;2.05;1.00;;;;;;;;;;4903658;29;20048;-70
2022/10/28 14:05:38;;;;;;;3.38;1.20;;;;;;;;;;4904745;28;20146;-69
2022/10/28 14:08:17;;;;;;;2.95;1.25;;;;;;;;;;4904247;29;20496;-69
2022/10/28 14:11:08;;;;;;;3.17;1.15;;;;;;;;;;4916485;29;20496;-69
2022/10/28 14:13:37;;;;;;;3.65;1.48;;;;;;;;;;4903278;29;20588;-69
2022/10/28 14:16:21;;;;;;;6.60;1.45;;;;;;;;;;4903450;29;20048;-69
2022/10/28 14:19:01;;;;;;;2.65;1.45;;;;;;;;;;4918067;29;20048;-69
2022/10/28 14:21:49;;;;;;;4.13;2.03;;;;;;;;;;4904647;28;20078;-69
2022/10/28 14:24:44;;;;;;;4.72;1.65;;;;;;;;;;4904563;29;20154;-69
2022/10/28 14:27:14;;;;;;;3.15;1.45;;;;;;;;;;4908435;28;20731;-69
2022/10/28 14:29:54;;;;;;;6.20;2.03;;;;;;;;;;4905490;29;20056;-70
2022/10/28 14:32:32;;;;;;;2.53;1.33;;;;;;;;;;4918470;28;20051;-69
2022/10/28 14:35:19;;;;;;;3.67;1.52;;;;;;;;;;4904666;29;20055;-69
2022/10/28 14:38:10;;;;;;;9.73;1.58;;;;;;;;;;4905056;29;20040;-70
2022/10/28 14:40:44;;;;;;;7.68;1.58;;;;;;;;;;4904328;28;20116;-70
2022/10/28 14:43:13;;;;;;;5.85;1.30;;;;;;;;;;4904919;29;20044;-70
2022/10/28 14:46:00;;;;;;;5.88;1.63;;;;;;;;;;4903203;29;20072;-69
2022/10/28 14:48:31;;;;;;;7.20;1.77;;;;;;;;;;4905002;29;20135;-70
2022/10/28 14:50:59;;;;;;;5.05;1.95;;;;;;;;;;4904728;28;20059;-70
2022/10/28 14:53:29;;;;;;;6.18;1.40;;;;;;;;;;4904818;29;20054;-69
2022/10/28 14:56:01;;;;;;;13.95;2.20;;;;;;;;;;4904839;29;20079;-69
2022/10/28 14:58:36;;;;;;;3.10;1.63;;;;;;;;;;4903724;28;20424;-69
2022/10/28 15:01:16;;;;;;;5.95;1.95;;;;;;;;;;4904311;29;20131;-69
2022/10/28 15:03:49;;;;;;;8.38;1.45;;;;;;;;;;4904601;28;20048;-68
2022/10/28 15:06:36;;;;;;;5.82;1.55;;;;;;;;;;4903480;29;20760;-71
2022/10/28 15:09:13;;;;;;;9.75;1.50;;;;;;;;;;4903660;28;20631;-70
2022/10/28 15:11:42;;;;;;;3.80;1.38;;;;;;;;;;4870925;29;20056;-70